Terminal Aerodrome Forecast
Issued by NWS Northern Indiana

Home | Current Version | Previous Version | Graphics & Text | Print | Product List | Glossary On
Versions: 1 2 3 4 5 6 7 8 9 10 11 12 13 14 15 16 17 18
000
FTUS43 KIWX 301121
TAFFWA
TAF
KFWA 301121Z 3012/0112 08008KT P6SM -SHRA OVC008
     FM301700 17013G21KT P6SM VCTS OVC025CB
     FM302000 20016G27KT 6SM +SHRA VCTS OVC050CB
     FM010000 17011KT 5SM SHRA VCTS BKN070CB
     FM010500 17016G28KT P6SM SHRA VCTS OVC060CB
     FM010900 20015G28KT P6SM OVC020=

USA.gov is the U.S. government's official web portal to all federal, state and local government web resources and services.